createdAt,value
2022-08-07T00:02:39.803Z,4.50
2022-08-07T00:05:06.144Z,4.72
2022-08-07T00:07:40.486Z,4.20
2022-08-07T00:10:27.249Z,4.32
2022-08-07T00:13:02.271Z,4.40
2022-08-07T00:15:46.702Z,4.38
2022-08-07T00:18:24.316Z,4.65
2022-08-07T00:20:56.825Z,4.93
2022-08-07T00:23:28.280Z,4.68
2022-08-07T00:26:02.801Z,4.38
2022-08-07T00:28:45.917Z,4.30
2022-08-07T00:31:37.493Z,4.88
2022-08-07T00:34:08.547Z,4.40
2022-08-07T00:36:43.217Z,4.75
2022-08-07T00:39:17.115Z,5.63
2022-08-07T00:42:01.481Z,4.70
2022-08-07T00:44:35.110Z,4.70
2022-08-07T00:47:16.185Z,4.72
2022-08-07T00:52:53.025Z,4.70
2022-08-07T00:55:25.502Z,4.78
2022-08-07T00:58:12.846Z,4.40
2022-08-07T01:00:54.077Z,4.82
2022-08-07T01:03:55.609Z,4.70
2022-08-07T01:06:14.280Z,5.20
2022-08-07T01:08:53.790Z,4.70
2022-08-07T01:12:09.828Z,4.85
2022-08-07T01:14:16.604Z,4.97
2022-08-07T01:16:47.970Z,4.47
2022-08-07T01:19:19.818Z,4.28
2022-08-07T01:21:55.345Z,5.00
2022-08-07T01:24:26.157Z,4.85
2022-08-07T01:26:56.723Z,5.10
2022-08-07T01:29:33.701Z,5.13
2022-08-07T01:32:12.513Z,4.80
2022-08-07T01:34:47.204Z,4.95
2022-08-07T01:37:18.994Z,5.03
2022-08-07T01:39:50.419Z,5.07
2022-08-07T01:42:40.088Z,4.80
2022-08-07T01:45:17.798Z,4.85
2022-08-07T01:48:18.534Z,4.55
2022-08-07T01:50:40.319Z,5.50
2022-08-07T01:53:21.632Z,5.10
2022-08-07T01:56:12.611Z,5.70
2022-08-07T01:58:50.201Z,4.75
2022-08-07T02:02:00.190Z,5.45
2022-08-07T02:04:23.002Z,5.45
2022-08-07T02:06:59.855Z,5.18
2022-08-07T02:09:53.226Z,5.43
2022-08-07T02:12:29.240Z,5.22
2022-08-07T02:15:06.729Z,4.70
2022-08-07T02:17:39.414Z,6.20
2022-08-07T02:20:17.477Z,4.90
2022-08-07T02:22:55.393Z,4.97
2022-08-07T02:26:10.315Z,5.93
2022-08-07T02:28:24.388Z,5.78
2022-08-07T02:30:55.692Z,5.72
2022-08-07T02:33:41.906Z,5.70
2022-08-07T02:36:28.869Z,5.43
2022-08-07T02:39:15.934Z,5.63
2022-08-07T02:41:54.425Z,5.95
2022-08-07T02:44:34.432Z,5.85
2022-08-07T02:47:06.806Z,6.05
2022-08-07T02:49:57.466Z,5.65
2022-08-07T02:52:32.553Z,6.50
2022-08-07T02:55:27.894Z,7.35
2022-08-07T02:58:05.633Z,4.80
2022-08-07T03:00:37.555Z,6.05
2022-08-07T03:03:13.414Z,5.65
2022-08-07T03:05:43.982Z,5.03
2022-08-07T03:08:15.713Z,6.00
2022-08-07T03:10:47.457Z,5.70
2022-08-07T03:13:20.179Z,4.97
2022-08-07T03:15:56.697Z,4.97
2022-08-07T03:18:34.715Z,5.30
2022-08-07T03:21:11.276Z,5.70
2022-08-07T03:24:19.060Z,5.43
2022-08-07T03:26:35.324Z,5.30
2022-08-07T03:29:15.677Z,6.55
2022-08-07T03:31:49.833Z,6.38
2022-08-07T03:34:22.294Z,5.85
2022-08-07T03:36:54.691Z,7.28
2022-08-07T03:39:59.673Z,6.35
2022-08-07T03:44:53.529Z,7.07
2022-08-07T03:47:23.945Z,6.70
2022-08-07T03:49:53.732Z,6.80
2022-08-07T03:54:33.014Z,6.53
2022-08-07T03:57:03.303Z,5.95
2022-08-07T03:59:33.888Z,5.88
2022-08-07T04:02:04.242Z,5.93
2022-08-07T04:04:33.897Z,5.57
2022-08-07T04:07:16.610Z,6.20
2022-08-07T04:09:50.695Z,5.40
2022-08-07T04:12:27.091Z,5.32
2022-08-07T04:15:00.744Z,7.10
2022-08-07T04:18:30.898Z,5.90
2022-08-07T04:20:20.596Z,6.00
2022-08-07T04:22:53.331Z,5.82
2022-08-07T04:25:35.945Z,6.15
2022-08-07T04:28:13.245Z,5.60
2022-08-07T04:30:56.638Z,5.72
2022-08-07T04:33:28.152Z,5.97
2022-08-07T04:35:58.419Z,5.80
2022-08-07T04:38:29.236Z,6.30
2022-08-07T04:41:00.092Z,5.97
2022-08-07T04:44:10.325Z,6.03
2022-08-07T04:46:34.445Z,6.35
2022-08-07T04:49:17.900Z,6.13
2022-08-07T04:52:05.237Z,6.45
2022-08-07T04:54:41.122Z,5.90
2022-08-07T04:58:12.099Z,6.65
2022-08-07T05:00:31.577Z,5.20
2022-08-07T05:03:17.265Z,5.93
2022-08-07T05:06:19.321Z,5.20
2022-08-07T05:09:01.935Z,7.45
2022-08-07T05:14:55.861Z,5.53
2022-08-07T05:17:51.899Z,6.03
2022-08-07T05:20:16.629Z,5.47
2022-08-07T05:22:49.383Z,4.95
2022-08-07T05:25:35.596Z,5.70
2022-08-07T05:28:20.061Z,4.72
2022-08-07T05:30:53.779Z,5.32
2022-08-07T05:33:25.937Z,5.15
2022-08-07T05:35:57.706Z,5.47
2022-08-07T05:38:59.955Z,4.93
2022-08-07T05:41:18.526Z,5.03
2022-08-07T05:44:12.698Z,5.28
2022-08-07T05:46:45.971Z,4.47
2022-08-07T05:49:22.654Z,4.93
2022-08-07T05:51:52.290Z,4.97
2022-08-07T05:54:30.744Z,5.03
2022-08-07T05:57:03.578Z,4.85
2022-08-07T05:59:57.576Z,4.45
2022-08-07T06:02:32.916Z,4.15
2022-08-07T06:05:07.450Z,4.13
2022-08-07T06:08:13.535Z,5.22
2022-08-07T06:10:31.173Z,4.25
2022-08-07T06:13:02.448Z,5.40
2022-08-07T06:15:38.976Z,5.07
2022-08-07T06:18:14.801Z,5.50
2022-08-07T06:20:50.496Z,4.97
2022-08-07T06:24:36.799Z,4.93
2022-08-07T06:26:27.473Z,5.10
2022-08-07T06:31:46.611Z,5.82
2022-08-07T06:34:21.476Z,5.18
2022-08-07T06:36:52.108Z,6.18
2022-08-07T06:40:17.985Z,6.25
2022-08-07T06:42:17.761Z,6.40
2022-08-07T06:44:50.968Z,7.40
2022-08-07T06:47:22.024Z,6.45
2022-08-07T06:49:58.631Z,5.18
2022-08-07T06:55:27.735Z,6.40
2022-08-07T06:56:49.375Z,6.18
2022-08-07T07:00:14.718Z,6.10
2022-08-07T07:02:48.510Z,6.40
2022-08-07T07:05:13.043Z,5.60
2022-08-07T07:07:59.947Z,6.20
2022-08-07T07:10:37.148Z,5.30
2022-08-07T07:13:14.628Z,6.00
2022-08-07T07:15:51.900Z,4.60
2022-08-07T07:18:47.967Z,3.70
2022-08-07T07:21:27.002Z,5.20
2022-08-07T07:24:11.242Z,4.10
2022-08-07T07:26:51.963Z,4.53
2022-08-07T07:29:56.834Z,5.13
2022-08-07T07:32:17.808Z,4.45
2022-08-07T07:34:51.056Z,3.90
2022-08-07T07:37:45.133Z,4.15
2022-08-07T07:40:18.638Z,4.72
2022-08-07T07:42:54.325Z,4.30
2022-08-07T07:46:38.266Z,4.00
2022-08-07T07:48:35.026Z,4.07
2022-08-07T07:51:07.738Z,4.13
2022-08-07T07:53:51.899Z,3.60
2022-08-07T07:56:30.071Z,3.33
2022-08-07T07:59:05.932Z,3.83
2022-08-07T08:02:02.576Z,3.80
2022-08-07T08:04:31.272Z,3.17
2022-08-07T08:07:07.605Z,3.42
2022-08-07T08:09:52.151Z,3.97
2022-08-07T08:12:52.077Z,3.13
2022-08-07T08:15:23.227Z,3.45
2022-08-07T08:18:36.943Z,3.38
2022-08-07T08:20:43.669Z,3.00
2022-08-07T08:23:37.273Z,3.80
2022-08-07T08:26:22.954Z,2.47
2022-08-07T08:28:57.074Z,3.28
2022-08-07T08:31:58.666Z,3.15
2022-08-07T08:34:29.195Z,2.58
2022-08-07T08:37:00.121Z,2.42
2022-08-07T08:39:38.948Z,2.30
2022-08-07T08:42:29.078Z,2.20
2022-08-07T08:45:13.098Z,3.22
2022-08-07T08:47:55.549Z,3.30
2022-08-07T08:53:20.635Z,3.47
2022-08-07T08:55:58.978Z,2.72
2022-08-07T08:58:41.910Z,2.75
2022-08-07T09:01:20.420Z,2.53
2022-08-07T09:04:01.602Z,2.88
2022-08-07T09:06:47.790Z,2.50
2022-08-07T09:09:57.436Z,2.20
2022-08-07T09:12:53.243Z,2.92
2022-08-07T09:16:23.680Z,2.40
2022-08-07T09:19:51.609Z,2.80
2022-08-07T09:24:32.713Z,2.88
2022-08-07T09:25:28.032Z,2.88
2022-08-07T09:30:00.559Z,2.97
2022-08-07T09:31:05.873Z,3.00
2022-08-07T09:34:01.040Z,3.30
2022-08-07T09:36:37.059Z,2.28
2022-08-07T09:39:54.729Z,2.53
2022-08-07T09:42:36.454Z,3.30
2022-08-07T09:47:27.512Z,2.78
2022-08-07T09:48:43.970Z,2.65
2022-08-07T09:54:02.390Z,2.10
2022-08-07T09:57:46.869Z,2.33
2022-08-07T10:00:18.791Z,2.50
2022-08-07T10:04:05.432Z,2.63
2022-08-07T10:06:40.572Z,2.20
2022-08-07T10:10:00.179Z,2.33
2022-08-07T10:13:03.672Z,1.50
2022-08-07T10:15:51.782Z,2.42
2022-08-07T10:18:53.345Z,2.38
2022-08-07T10:22:02.778Z,2.05
2022-08-07T10:25:05.596Z,2.25
2022-08-07T10:28:02.478Z,1.92
2022-08-07T10:30:45.615Z,1.83
2022-08-07T10:34:14.242Z,2.00
2022-08-07T10:36:50.192Z,2.75
2022-08-07T10:39:41.688Z,2.90
2022-08-07T10:42:37.790Z,3.30
2022-08-07T10:45:44.798Z,3.00
2022-08-07T10:48:34.940Z,3.22
2022-08-07T10:51:16.265Z,3.03
2022-08-07T10:54:15.101Z,2.97
2022-08-07T10:57:01.625Z,3.13
2022-08-07T10:59:55.039Z,3.67
2022-08-07T11:02:37.917Z,3.65
2022-08-07T11:05:35.931Z,4.47
2022-08-07T11:08:31.519Z,4.25
2022-08-07T11:11:10.888Z,4.80
2022-08-07T11:14:56.582Z,4.82
2022-08-07T11:16:51.019Z,4.50
2022-08-07T11:19:31.937Z,4.28
2022-08-07T11:22:27.395Z,4.13
2022-08-07T11:25:13.275Z,4.32
2022-08-07T11:28:01.326Z,3.95
2022-08-07T11:30:44.231Z,4.55
2022-08-07T11:33:59.580Z,5.00
2022-08-07T11:36:39.511Z,4.57
2022-08-07T11:39:24.698Z,4.65
2022-08-07T11:42:08.256Z,4.47
2022-08-07T11:44:59.129Z,5.35
2022-08-07T11:47:56.692Z,5.15
2022-08-07T11:54:01.201Z,4.88
2022-08-07T11:56:48.623Z,5.40
2022-08-07T12:00:11.551Z,6.43
2022-08-07T12:03:41.390Z,6.10
2022-08-07T12:06:44.901Z,6.17
2022-08-07T12:09:33.579Z,6.88
2022-08-07T12:12:11.660Z,7.70
2022-08-07T12:14:56.126Z,6.72
2022-08-07T12:17:58.962Z,7.18
2022-08-07T12:20:36.399Z,8.30
2022-08-07T12:24:05.517Z,7.35
2022-08-07T12:26:35.381Z,7.18
2022-08-07T12:29:37.215Z,7.95
2022-08-07T12:32:19.284Z,7.75
2022-08-07T12:34:55.943Z,7.47
2022-08-07T12:38:09.661Z,8.13
2022-08-07T12:40:46.538Z,7.50
2022-08-07T12:44:04.583Z,8.25
2022-08-07T12:49:25.762Z,8.20
2022-08-07T12:54:02.621Z,8.05
2022-08-07T12:56:55.288Z,7.80
2022-08-07T12:59:33.313Z,8.15
2022-08-07T13:03:01.273Z,7.78
2022-08-07T13:06:02.613Z,8.20
2022-08-07T13:08:56.851Z,8.10
2022-08-07T13:12:02.672Z,8.70
2022-08-07T13:15:04.764Z,8.23
2022-08-07T13:17:44.143Z,9.40
2022-08-07T13:20:27.769Z,8.25
2022-08-07T13:23:09.977Z,9.70
2022-08-07T13:26:10.521Z,8.80
2022-08-07T13:28:55.286Z,9.10
2022-08-07T13:31:46.109Z,8.35
2022-08-07T13:34:39.061Z,9.18
2022-08-07T13:37:25.023Z,8.98
2022-08-07T13:40:35.176Z,8.68
2022-08-07T13:43:11.842Z,8.07
2022-08-07T13:46:10.833Z,7.57
2022-08-07T13:48:39.661Z,7.45
2022-08-07T13:51:28.190Z,7.70
2022-08-07T13:54:03.792Z,8.15
2022-08-07T13:56:41.267Z,7.18
2022-08-07T13:59:31.589Z,7.93
2022-08-07T14:02:10.383Z,7.90
2022-08-07T14:04:54.336Z,7.53
2022-08-07T14:07:28.459Z,7.53
2022-08-07T14:10:20.404Z,8.40
2022-08-07T14:13:00.554Z,8.00
2022-08-07T14:15:36.551Z,7.57
2022-08-07T14:18:23.895Z,8.82
2022-08-07T14:21:11.668Z,8.65
2022-08-07T14:24:00.885Z,8.40
2022-08-07T14:26:50.724Z,8.68
2022-08-07T14:30:04.985Z,7.95
2022-08-07T14:32:19.267Z,7.35
2022-08-07T14:34:52.565Z,7.72
2022-08-07T14:37:23.717Z,7.85
2022-08-07T14:40:25.774Z,7.05
2022-08-07T14:43:54.894Z,6.82
2022-08-07T14:48:48.521Z,6.40
2022-08-07T14:51:24.177Z,6.57
2022-08-07T14:54:33.107Z,6.47
2022-08-07T14:57:08.566Z,6.78
2022-08-07T15:00:03.337Z,6.40
2022-08-07T15:02:34.524Z,7.00
2022-08-07T15:08:00.294Z,6.68
2022-08-07T15:10:31.433Z,6.57
2022-08-07T15:16:11.467Z,7.15
2022-08-07T15:18:48.055Z,7.22
2022-08-07T15:21:59.324Z,5.93
2022-08-07T15:27:15.775Z,5.68
2022-08-07T15:30:04.835Z,6.28
2022-08-07T15:33:01.289Z,6.53
2022-08-07T15:35:40.690Z,6.30
2022-08-07T15:38:51.383Z,6.70
2022-08-07T15:42:43.379Z,6.38
2022-08-07T15:44:23.727Z,6.38
2022-08-07T15:47:03.295Z,6.25
2022-08-07T15:50:04.234Z,5.95
2022-08-07T15:53:56.854Z,6.20
2022-08-07T15:56:36.954Z,5.97
2022-08-07T15:59:17.431Z,6.75
2022-08-07T16:02:01.847Z,6.82
2022-08-07T16:04:36.191Z,7.03
2022-08-07T16:08:30.355Z,7.68
2022-08-07T16:10:15.508Z,7.15
2022-08-07T16:13:04.897Z,6.55
2022-08-07T16:16:48.725Z,6.78
2022-08-07T16:19:20.858Z,7.57
2022-08-07T16:22:55.827Z,7.28
2022-08-07T16:25:56.784Z,7.80
2022-08-07T16:30:05.974Z,6.95
2022-08-07T16:32:00.703Z,7.05
2022-08-07T16:34:48.492Z,6.82
2022-08-07T16:38:44.461Z,6.28
2022-08-07T16:41:41.201Z,6.05
2022-08-07T16:45:14.750Z,6.13
2022-08-07T16:48:28.609Z,5.68
2022-08-07T16:51:57.730Z,5.40
2022-08-07T16:54:32.953Z,5.20
2022-08-07T16:58:02.644Z,5.13
2022-08-07T17:00:43.571Z,5.88
2022-08-07T17:03:58.275Z,5.50
2022-08-07T17:06:34.291Z,5.60
2022-08-07T17:10:06.043Z,6.22
2022-08-07T17:12:34.330Z,6.57
2022-08-07T17:15:21.362Z,6.18
2022-08-07T17:18:12.701Z,5.18
2022-08-07T17:20:46.586Z,5.75
2022-08-07T17:23:38.884Z,5.53
2022-08-07T17:26:24.249Z,5.25
2022-08-07T17:29:18.399Z,5.43
2022-08-07T17:32:31.211Z,5.70
2022-08-07T17:35:50.916Z,5.82
2022-08-07T17:38:33.520Z,5.63
2022-08-07T17:42:00.574Z,5.70
2022-08-07T17:44:33.270Z,5.53
2022-08-07T17:47:16.836Z,5.60
2022-08-07T17:49:55.860Z,5.22
2022-08-07T17:52:39.901Z,5.47
2022-08-07T17:55:14.114Z,6.20
2022-08-07T17:57:58.752Z,6.82
2022-08-07T18:00:49.071Z,6.22
2022-08-07T18:04:04.658Z,5.22
2022-08-07T18:06:38.168Z,6.57
2022-08-07T18:09:09.544Z,5.88
2022-08-07T18:12:17.844Z,6.63
2022-08-07T18:14:52.894Z,6.53
2022-08-07T18:18:36.519Z,6.60
2022-08-07T18:21:07.145Z,6.55
2022-08-07T18:23:43.689Z,6.07
2022-08-07T18:26:26.963Z,7.32
2022-08-07T18:30:04.692Z,7.00
2022-08-07T18:32:21.983Z,6.68
2022-08-07T18:35:12.872Z,5.85
2022-08-07T18:38:55.182Z,6.30
2022-08-07T18:41:17.040Z,5.83
2022-08-07T18:44:03.883Z,5.47
2022-08-07T18:46:58.223Z,5.20
2022-08-07T18:50:31.465Z,5.63
2022-08-07T18:54:27.595Z,5.80
2022-08-07T18:57:30.665Z,4.53
2022-08-07T19:00:32.425Z,4.40
2022-08-07T19:03:12.211Z,4.53
2022-08-07T19:06:04.103Z,4.60
2022-08-07T19:08:48.312Z,4.60
2022-08-07T19:11:35.022Z,4.05
2022-08-07T19:14:17.262Z,3.90
2022-08-07T19:17:07.645Z,3.95
2022-08-07T19:19:55.115Z,4.05
2022-08-07T19:22:34.226Z,3.72
2022-08-07T19:26:23.356Z,3.75
2022-08-07T19:28:57.147Z,3.15
2022-08-07T19:31:37.428Z,3.35
2022-08-07T19:34:02.856Z,2.92
2022-08-07T19:36:42.561Z,2.78
2022-08-07T19:39:56.126Z,3.65
2022-08-07T19:42:24.544Z,3.08
2022-08-07T19:44:56.953Z,3.08
2022-08-07T19:47:36.681Z,3.67
2022-08-07T19:50:41.135Z,3.30
2022-08-07T19:55:56.353Z,3.15
2022-08-07T19:58:22.497Z,3.40
2022-08-07T20:01:01.686Z,2.95
2022-08-07T20:03:35.209Z,2.90
2022-08-07T20:06:15.312Z,2.83
2022-08-07T20:09:03.070Z,3.33
2022-08-07T20:12:22.849Z,3.50
2022-08-07T20:14:32.114Z,3.60
2022-08-07T20:17:06.082Z,3.25
2022-08-07T20:19:48.034Z,3.35
2022-08-07T20:22:34.108Z,3.40
2022-08-07T20:25:19.297Z,3.72
2022-08-07T20:27:58.562Z,3.05
2022-08-07T20:30:35.094Z,3.45
2022-08-07T20:33:24.494Z,3.30
2022-08-07T20:36:03.059Z,3.50
2022-08-07T20:38:35.049Z,3.60
2022-08-07T20:41:08.370Z,3.70
2022-08-07T20:43:47.674Z,3.88
2022-08-07T20:46:26.656Z,3.08
2022-08-07T20:49:57.994Z,4.05
2022-08-07T20:51:51.463Z,3.53
2022-08-07T20:54:29.998Z,3.90
2022-08-07T20:57:05.322Z,3.40
2022-08-07T21:00:06.431Z,5.00
2022-08-07T21:05:50.550Z,3.33
2022-08-07T21:08:38.246Z,3.28
2022-08-07T21:11:14.806Z,3.83
2022-08-07T21:14:29.365Z,3.83
2022-08-07T21:16:56.850Z,3.92
2022-08-07T21:19:51.246Z,3.28
2022-08-07T21:22:29.574Z,4.22
2022-08-07T21:25:13.338Z,4.00
2022-08-07T21:28:09.492Z,3.78
2022-08-07T21:30:57.875Z,3.97
2022-08-07T21:33:41.894Z,3.55
2022-08-07T21:36:31.784Z,3.65
2022-08-07T21:39:47.714Z,4.10
2022-08-07T21:42:48.139Z,3.35
2022-08-07T21:46:08.016Z,3.65
2022-08-07T21:48:28.526Z,4.10
2022-08-07T21:53:54.755Z,3.55
2022-08-07T21:56:48.256Z,3.45
2022-08-07T22:00:05.225Z,3.50
2022-08-07T22:02:35.729Z,3.83
2022-08-07T22:05:08.847Z,3.88
2022-08-07T22:07:58.484Z,3.50
2022-08-07T22:10:35.567Z,4.00
2022-08-07T22:13:09.011Z,3.67
2022-08-07T22:16:44.090Z,3.53
2022-08-07T22:18:46.436Z,3.92
2022-08-07T22:21:21.179Z,3.55
2022-08-07T22:23:59.793Z,4.07
2022-08-07T22:26:44.395Z,3.67
2022-08-07T22:29:38.132Z,3.53
2022-08-07T22:32:24.492Z,3.50
2022-08-07T22:34:57.438Z,3.75
2022-08-07T22:38:04.150Z,3.72
2022-08-07T22:40:44.219Z,3.97
2022-08-07T22:43:18.714Z,3.97
2022-08-07T22:46:46.939Z,4.03
2022-08-07T22:49:33.688Z,3.55
2022-08-07T22:52:39.919Z,3.13
2022-08-07T22:55:40.550Z,3.47
2022-08-07T22:58:56.055Z,4.03
2022-08-07T23:02:17.030Z,3.55
2022-08-07T23:06:08.954Z,3.45
2022-08-07T23:08:32.684Z,3.22
2022-08-07T23:11:24.617Z,3.30
2022-08-07T23:14:24.651Z,3.60
2022-08-07T23:17:29.666Z,2.28
2022-08-07T23:20:53.162Z,3.55
2022-08-07T23:24:17.127Z,2.80
2022-08-07T23:27:08.663Z,2.88
2022-08-07T23:30:37.309Z,3.20
2022-08-07T23:34:34.865Z,3.35
2022-08-07T23:36:37.345Z,2.78
2022-08-07T23:39:14.440Z,3.20
2022-08-07T23:42:04.211Z,3.42
2022-08-07T23:45:49.869Z,3.25
2022-08-07T23:48:35.520Z,3.40
2022-08-07T23:52:55.982Z,3.35
2022-08-07T23:54:11.719Z,3.47
2022-08-07T23:57:03.011Z,3.22
